CW8095 Weather Reports


Display with metric or nautical units.
time (UTC)temp
F
wind
direction
speed
MPH
gust
MPH
rain 1hr
in
rain 24hr
in
rain mn
in
humidity
%
barometer
mb
20220813113021 80 208 0.0 0.0 0.00 0.00 0.00 76 1016.6
20220813110041 81 208 0.0 0.0 0.00 0.00 0.00 74 1016.4
20220813103041 81 208 0.0 0.0 0.00 0.00 0.00 73 1016.5
20220813100206 80 208 0.0 0.0 0.00 0.00 0.00 74 1016.5
20220813093021 81 208 0.0 0.0 0.00 0.00 0.00 73 1016.4
20220813090021 82 208 0.0 0.0 0.00 0.00 0.00 71 1016.2
20220813083021 82 208 0.0 0.0 0.00 0.00 0.00 68 1016.2
20220813080123 83 208 0.0 0.0 0.00 0.00 0.00 67 1016.1
20220813073037 84 208 0.0 0.0 0.00 0.00 0.00 65 1016.2
20220813070042 85 208 0.0 0.0 0.00 0.00 0.00 64 1015.9
20220813063015 85 208 0.0 0.0 0.00 0.00 0.00 62 1016.1
20220813060125 86 208 0.0 0.0 0.00 0.00 0.00 61 1016.2
20220813053206 87 208 0.0 0.0 0.00 0.00 0.00 58 1016.0
20220813050024 88 208 0.0 0.0 0.00 0.00 0.00 56 1015.9
20220813043023 88 208 0.0 0.0 0.00 0.00 0.00 55 1015.8
20220813040016 88 208 0.0 0.0 0.00 0.00 0.00 55 1015.6
20220813033021 89 208 0.0 0.0 0.00 0.00 0.00 53 1015.4
20220813030021 90 208 0.0 0.0 0.00 0.00 0.00 52 1015.0
20220813023044 91 208 0.0 0.0 0.00 0.00 0.00 49 1014.3
20220813020022 92 208 0.0 0.0 0.00 0.00 0.00 48 1014.2
20220813013147 93 208 0.0 0.0 0.00 0.00 0.00 46 1014.1
20220813010021 95 208 0.0 0.0 0.00 0.00 0.00 44 1013.8
20220813003021 96 203 0.0 1.0 0.00 0.00 0.00 42 1013.7
20220813000041 97 208 0.0 0.0 0.00 0.00 0.00 43 1013.7
20220812233037 96 203 0.0 1.0 0.00 0.00 0.00 45 1013.6
20220812230104 96 203 0.0 1.0 0.00 0.00 0.00 44 1013.8
20220812223100 98 203 0.0 1.0 0.00 0.00 0.00 44 1014.0
20220812220104 97 203 0.0 1.0 0.00 0.00 0.00 44 1014.2
20220812213103 96 225 0.0 3.0 0.00 0.00 0.00 48 1014.2
20220812210045 95 225 0.0 1.0 0.00 0.00 0.00 47 1014.9
20220812203057 95 225 0.0 1.0 0.00 0.00 0.00 48 1015.5
20220812200042 93 219 0.0 0.0 0.00 0.00 0.00 49 1015.8
20220812193017 94 225 0.0 1.0 0.00 0.00 0.00 49 1016.1
20220812190042 94 225 0.0 2.0 0.00 0.00 0.00 48 1016.2
20220812183023 95 225 0.0 1.0 0.00 0.00 0.00 50 1016.4
20220812180022 94 225 0.0 2.0 0.00 0.00 0.00 49 1016.6
20220812173023 93 219 0.0 0.0 0.00 0.00 0.00 52 1016.9
20220812170023 92 219 0.0 0.0 0.00 0.00 0.00 55 1017.3
20220812163124 91 219 0.0 0.0 0.00 0.00 0.00 57 1017.6
20220812160210 89 219 0.0 0.0 0.00 0.00 0.00 60 1017.8
20220812153024 88 220 0.0 0.0 0.00 0.00 0.00 64 1017.9
20220812150103 87 219 0.0 0.0 0.00 0.00 0.00 67 1017.7
20220812143023 84 225 0.0 1.0 0.00 0.00 0.00 70 1017.4
20220812140016 82 225 0.0 1.0 0.00 0.00 0.00 75 1017.5
20220812133103 81 219 0.0 0.0 0.00 0.00 0.00 77 1017.5
20220812130036 79 219 0.0 0.0 0.00 0.00 0.00 79 1017.3
20220812123022 79 219 0.0 0.0 0.00 0.00 0.00 79 1017.2
20220812120021 79 219 0.0 0.0 0.00 0.00 0.00 78 1017.1